sensor_id;sensor_type;location;lat;lon;timestamp;temperature;humidity
59067;DHT22;44854;50.838;4.438;2023-01-08T06:23:22;8.60;99.90
59067;DHT22;44854;50.838;4.438;2023-01-08T06:25:54;8.70;99.90
59067;DHT22;44854;50.838;4.438;2023-01-08T06:28:20;8.70;99.90
59067;DHT22;44854;50.838;4.438;2023-01-08T06:30:46;8.60;99.90
59067;DHT22;44854;50.838;4.438;2023-01-08T06:33:11;8.60;99.90
59067;DHT22;44854;50.838;4.438;2023-01-08T06:35:36;8.60;99.90
59067;DHT22;44854;50.838;4.438;2023-01-08T06:38:02;8.60;99.90
59067;DHT22;44854;50.838;4.438;2023-01-08T06:40:28;8.60;99.90
59067;DHT22;44854;50.838;4.438;2023-01-08T06:42:53;8.60;99.90
59067;DHT22;44854;50.838;4.438;2023-01-08T06:45:19;8.70;99.90
59067;DHT22;44854;50.838;4.438;2023-01-08T06:47:44;8.70;99.90
59067;DHT22;44854;50.838;4.438;2023-01-08T06:50:10;8.70;99.90
59067;DHT22;44854;50.838;4.438;2023-01-08T06:52:37;8.60;99.90
59067;DHT22;44854;50.838;4.438;2023-01-08T06:55:03;8.70;99.90
59067;DHT22;44854;50.838;4.438;2023-01-08T06:57:29;8.80;99.90
59067;DHT22;44854;50.838;4.438;2023-01-08T06:59:55;8.80;99.90
59067;DHT22;44854;50.838;4.438;2023-01-08T07:02:20;8.70;99.90
59067;DHT22;44854;50.838;4.438;2023-01-08T07:04:46;8.70;99.90
59067;DHT22;44854;50.838;4.438;2023-01-08T07:07:13;8.70;99.90
59067;DHT22;44854;50.838;4.438;2023-01-08T07:09:39;8.80;99.90
59067;DHT22;44854;50.838;4.438;2023-01-08T07:12:05;8.70;99.90
59067;DHT22;44854;50.838;4.438;2023-01-08T07:14:31;8.80;99.90
59067;DHT22;44854;50.838;4.438;2023-01-08T07:16:56;8.90;99.90
59067;DHT22;44854;50.838;4.438;2023-01-08T07:19:22;8.90;99.90
59067;DHT22;44854;50.838;4.438;2023-01-08T07:21:47;9.00;99.90
59067;DHT22;44854;50.838;4.438;2023-01-08T07:24:13;9.00;99.90
59067;DHT22;44854;50.838;4.438;2023-01-08T07:26:38;8.90;99.90
59067;DHT22;44854;50.838;4.438;2023-01-08T07:29:04;9.00;99.90
59067;DHT22;44854;50.838;4.438;2023-01-08T07:31:31;9.00;99.90
59067;DHT22;44854;50.838;4.438;2023-01-08T07:33:57;8.90;99.90
59067;DHT22;44854;50.838;4.438;2023-01-08T07:36:22;8.90;99.90
59067;DHT22;44854;50.838;4.438;2023-01-08T07:38:48;9.10;99.90
59067;DHT22;44854;50.838;4.438;2023-01-08T07:41:14;9.20;99.90
59067;DHT22;44854;50.838;4.438;2023-01-08T07:43:40;9.10;99.90
59067;DHT22;44854;50.838;4.438;2023-01-08T07:46:06;9.20;99.90
59067;DHT22;44854;50.838;4.438;2023-01-08T07:48:31;9.10;99.90
59067;DHT22;44854;50.838;4.438;2023-01-08T07:51:00;9.10;99.90
59067;DHT22;44854;50.838;4.438;2023-01-08T07:53:26;9.10;99.90
59067;DHT22;44854;50.838;4.438;2023-01-08T07:55:52;9.20;99.90
59067;DHT22;44854;50.838;4.438;2023-01-08T07:58:24;9.30;99.90
59067;DHT22;44854;50.838;4.438;2023-01-08T08:00:49;9.20;99.90
59067;DHT22;44854;50.838;4.438;2023-01-08T08:03:15;9.10;99.90
59067;DHT22;44854;50.838;4.438;2023-01-08T08:05:40;9.20;99.90
59067;DHT22;44854;50.838;4.438;2023-01-08T08:08:06;9.10;99.90
59067;DHT22;44854;50.838;4.438;2023-01-08T08:10:32;9.20;99.90
59067;DHT22;44854;50.838;4.438;2023-01-08T08:12:58;9.30;99.90
59067;DHT22;44854;50.838;4.438;2023-01-08T08:15:23;9.30;99.90
59067;DHT22;44854;50.838;4.438;2023-01-08T08:17:49;9.30;99.90
59067;DHT22;44854;50.838;4.438;2023-01-08T08:20:14;9.50;99.90
59067;DHT22;44854;50.838;4.438;2023-01-08T08:22:40;9.60;99.90
59067;DHT22;44854;50.838;4.438;2023-01-08T08:25:05;9.50;99.90
59067;DHT22;44854;50.838;4.438;2023-01-08T08:27:31;9.40;99.90
59067;DHT22;44854;50.838;4.438;2023-01-08T08:29:58;9.40;99.90
59067;DHT22;44854;50.838;4.438;2023-01-08T08:32:25;9.50;99.90
59067;DHT22;44854;50.838;4.438;2023-01-08T08:34:51;9.50;99.90
59067;DHT22;44854;50.838;4.438;2023-01-08T08:37:16;9.60;99.90
59067;DHT22;44854;50.838;4.438;2023-01-08T08:39:42;9.60;99.90
59067;DHT22;44854;50.838;4.438;2023-01-08T08:42:07;9.60;99.90
59067;DHT22;44854;50.838;4.438;2023-01-08T08:44:33;9.60;99.90
59067;DHT22;44854;50.838;4.438;2023-01-08T08:46:58;9.70;99.90
59067;DHT22;44854;50.838;4.438;2023-01-08T08:49:24;9.70;99.90
59067;DHT22;44854;50.838;4.438;2023-01-08T08:51:49;9.70;99.90
59067;DHT22;44854;50.838;4.438;2023-01-08T08:54:17;9.60;99.90
59067;DHT22;44854;50.838;4.438;2023-01-08T08:56:42;9.60;99.90
59067;DHT22;44854;50.838;4.438;2023-01-08T08:59:08;9.60;99.90
59067;DHT22;44854;50.838;4.438;2023-01-08T09:01:36;9.60;99.90
59067;DHT22;44854;50.838;4.438;2023-01-08T09:04:01;9.60;99.90
59067;DHT22;44854;50.838;4.438;2023-01-08T09:06:27;9.60;99.90
59067;DHT22;44854;50.838;4.438;2023-01-08T09:08:52;9.70;99.90
59067;DHT22;44854;50.838;4.438;2023-01-08T09:11:19;9.80;99.90
59067;DHT22;44854;50.838;4.438;2023-01-08T09:13:45;9.70;99.90
59067;DHT22;44854;50.838;4.438;2023-01-08T09:16:10;9.80;99.90
59067;DHT22;44854;50.838;4.438;2023-01-08T09:18:36;9.80;99.90
59067;DHT22;44854;50.838;4.438;2023-01-08T09:21:05;9.80;99.90
59067;DHT22;44854;50.838;4.438;2023-01-08T09:23:31;9.80;99.90
59067;DHT22;44854;50.838;4.438;2023-01-08T09:26:02;9.70;99.90
59067;DHT22;44854;50.838;4.438;2023-01-08T09:28:28;9.70;99.90
59067;DHT22;44854;50.838;4.438;2023-01-08T09:30:54;9.80;99.90
59067;DHT22;44854;50.838;4.438;2023-01-08T09:33:20;9.80;99.90
59067;DHT22;44854;50.838;4.438;2023-01-08T09:35:45;9.80;99.90
59067;DHT22;44854;50.838;4.438;2023-01-08T09:38:11;9.80;99.90
59067;DHT22;44854;50.838;4.438;2023-01-08T09:40:38;10.00;99.90
59067;DHT22;44854;50.838;4.438;2023-01-08T09:43:05;9.80;99.90
59067;DHT22;44854;50.838;4.438;2023-01-08T09:45:36;9.70;99.90
59067;DHT22;44854;50.838;4.438;2023-01-08T09:48:06;9.70;99.90
59067;DHT22;44854;50.838;4.438;2023-01-08T09:50:35;9.70;99.90
59067;DHT22;44854;50.838;4.438;2023-01-08T09:53:01;9.70;99.90
59067;DHT22;44854;50.838;4.438;2023-01-08T09:55:28;9.70;99.90
59067;DHT22;44854;50.838;4.438;2023-01-08T09:57:54;9.80;99.90
59067;DHT22;44854;50.838;4.438;2023-01-08T10:00:21;10.00;99.90
59067;DHT22;44854;50.838;4.438;2023-01-08T10:02:48;10.00;99.90
59067;DHT22;44854;50.838;4.438;2023-01-08T10:05:15;10.00;99.90
59067;DHT22;44854;50.838;4.438;2023-01-08T10:07:41;9.90;99.90
59067;DHT22;44854;50.838;4.438;2023-01-08T10:10:14;9.90;99.90
59067;DHT22;44854;50.838;4.438;2023-01-08T10:12:40;9.80;99.90
59067;DHT22;44854;50.838;4.438;2023-01-08T10:15:07;9.80;99.90
59067;DHT22;44854;50.838;4.438;2023-01-08T10:17:36;9.90;99.90
59067;DHT22;44854;50.838;4.438;2023-01-08T10:20:12;9.90;99.90
59067;DHT22;44854;50.838;4.438;2023-01-08T10:22:38;9.90;99.90
59067;DHT22;44854;50.838;4.438;2023-01-08T10:27:35;9.90;99.90
59067;DHT22;44854;50.838;4.438;2023-01-08T10:30:05;10.00;99.90
59067;DHT22;44854;50.838;4.438;2023-01-08T10:32:31;10.20;99.90
59067;DHT22;44854;50.838;4.438;2023-01-08T10:35:02;10.20;99.90
59067;DHT22;44854;50.838;4.438;2023-01-08T10:37:29;10.20;99.90
59067;DHT22;44854;50.838;4.438;2023-01-08T10:40:01;10.30;99.90
59067;DHT22;44854;50.838;4.438;2023-01-08T10:42:32;10.40;99.90
59067;DHT22;44854;50.838;4.438;2023-01-08T10:44:59;10.50;99.90
59067;DHT22;44854;50.838;4.438;2023-01-08T10:47:27;10.40;99.90
59067;DHT22;44854;50.838;4.438;2023-01-08T10:49:55;10.30;99.90
59067;DHT22;44854;50.838;4.438;2023-01-08T10:52:26;10.40;99.90
59067;DHT22;44854;50.838;4.438;2023-01-08T10:54:52;10.40;99.90
59067;DHT22;44854;50.838;4.438;2023-01-08T10:57:21;10.40;99.90
59067;DHT22;44854;50.838;4.438;2023-01-08T10:59:47;10.40;99.90
59067;DHT22;44854;50.838;4.438;2023-01-08T11:04:57;10.60;99.90
59067;DHT22;44854;50.838;4.438;2023-01-08T11:07:23;10.80;99.90
59067;DHT22;44854;50.838;4.438;2023-01-08T11:09:49;10.90;99.90
59067;DHT22;44854;50.838;4.438;2023-01-08T11:12:32;11.00;99.90
59067;DHT22;44854;50.838;4.438;2023-01-08T11:14:58;11.20;99.90
59067;DHT22;44854;50.838;4.438;2023-01-08T11:17:24;11.00;99.90
59067;DHT22;44854;50.838;4.438;2023-01-08T11:19:50;10.90;99.90
59067;DHT22;44854;50.838;4.438;2023-01-08T11:22:20;10.60;99.90
59067;DHT22;44854;50.838;4.438;2023-01-08T11:24:46;10.50;99.90
59067;DHT22;44854;50.838;4.438;2023-01-08T11:29:48;10.80;99.90
59067;DHT22;44854;50.838;4.438;2023-01-08T11:37:21;11.00;99.90
59067;DHT22;44854;50.838;4.438;2023-01-08T11:39:48;11.10;99.90
59067;DHT22;44854;50.838;4.438;2023-01-08T11:49:50;10.70;99.90
59067;DHT22;44854;50.838;4.438;2023-01-08T11:52:32;10.80;99.90
59067;DHT22;44854;50.838;4.438;2023-01-08T12:02:52;10.90;99.90
59067;DHT22;44854;50.838;4.438;2023-01-08T12:12:54;10.70;99.90
59067;DHT22;44854;50.838;4.438;2023-01-08T12:32:39;11.00;99.90
59067;DHT22;44854;50.838;4.438;2023-01-08T12:35:13;10.90;99.90
59067;DHT22;44854;50.838;4.438;2023-01-08T12:40:25;11.10;99.90
59067;DHT22;44854;50.838;4.438;2023-01-08T12:42:51;11.10;99.90
59067;DHT22;44854;50.838;4.438;2023-01-08T12:45:27;11.00;99.90
59067;DHT22;44854;50.838;4.438;2023-01-08T12:48:15;11.10;99.90
59067;DHT22;44854;50.838;4.438;2023-01-08T13:03:45;11.20;99.90
59067;DHT22;44854;50.838;4.438;2023-01-08T13:06:14;11.10;99.90
59067;DHT22;44854;50.838;4.438;2023-01-08T13:08:43;11.20;99.90
59067;DHT22;44854;50.838;4.438;2023-01-08T13:11:10;11.20;99.90
59067;DHT22;44854;50.838;4.438;2023-01-08T13:13:37;11.20;99.90
59067;DHT22;44854;50.838;4.438;2023-01-08T13:16:06;11.30;99.90
59067;DHT22;44854;50.838;4.438;2023-01-08T13:18:32;11.20;99.90
59067;DHT22;44854;50.838;4.438;2023-01-08T13:20:59;11.30;99.90
59067;DHT22;44854;50.838;4.438;2023-01-08T13:23:26;11.40;99.90
59067;DHT22;44854;50.838;4.438;2023-01-08T13:25:52;11.50;99.90
59067;DHT22;44854;50.838;4.438;2023-01-08T13:28:41;11.50;99.90
59067;DHT22;44854;50.838;4.438;2023-01-08T13:31:08;11.50;99.90
59067;DHT22;44854;50.838;4.438;2023-01-08T13:39:02;11.30;99.90
59067;DHT22;44854;50.838;4.438;2023-01-08T13:41:32;11.30;99.90
59067;DHT22;44854;50.838;4.438;2023-01-08T13:43:59;11.30;99.90
59067;DHT22;44854;50.838;4.438;2023-01-08T13:46:25;11.30;99.90
59067;DHT22;44854;50.838;4.438;2023-01-08T13:48:56;11.30;99.90
59067;DHT22;44854;50.838;4.438;2023-01-08T13:51:37;11.20;99.90
59067;DHT22;44854;50.838;4.438;2023-01-08T13:54:14;11.20;99.90
59067;DHT22;44854;50.838;4.438;2023-01-08T13:56:42;11.40;99.90
59067;DHT22;44854;50.838;4.438;2023-01-08T14:01:55;11.30;99.90
59067;DHT22;44854;50.838;4.438;2023-01-08T14:04:21;11.30;99.90
59067;DHT22;44854;50.838;4.438;2023-01-08T14:06:47;11.20;99.90
59067;DHT22;44854;50.838;4.438;2023-01-08T14:09:20;11.30;99.90
59067;DHT22;44854;50.838;4.438;2023-01-08T14:11:46;11.30;99.90
59067;DHT22;44854;50.838;4.438;2023-01-08T14:14:13;11.20;99.90
59067;DHT22;44854;50.838;4.438;2023-01-08T14:16:39;11.30;99.90
59067;DHT22;44854;50.838;4.438;2023-01-08T14:19:05;11.20;99.90
59067;DHT22;44854;50.838;4.438;2023-01-08T14:21:30;11.10;99.90
59067;DHT22;44854;50.838;4.438;2023-01-08T14:23:56;11.10;99.90
59067;DHT22;44854;50.838;4.438;2023-01-08T14:26:24;11.20;99.90
59067;DHT22;44854;50.838;4.438;2023-01-08T14:28:51;11.20;99.90
59067;DHT22;44854;50.838;4.438;2023-01-08T14:31:20;11.10;99.90
59067;DHT22;44854;50.838;4.438;2023-01-08T14:33:46;11.10;99.90
59067;DHT22;44854;50.838;4.438;2023-01-08T14:36:12;11.00;99.90
59067;DHT22;44854;50.838;4.438;2023-01-08T14:38:37;11.00;99.90
59067;DHT22;44854;50.838;4.438;2023-01-08T14:41:07;11.00;99.90
59067;DHT22;44854;50.838;4.438;2023-01-08T14:43:37;11.00;99.90
59067;DHT22;44854;50.838;4.438;2023-01-08T14:46:03;11.00;99.90
59067;DHT22;44854;50.838;4.438;2023-01-08T14:48:38;11.10;99.90
59067;DHT22;44854;50.838;4.438;2023-01-08T14:51:11;11.20;99.90
59067;DHT22;44854;50.838;4.438;2023-01-08T14:53:41;11.10;99.90
59067;DHT22;44854;50.838;4.438;2023-01-08T14:56:10;11.20;99.90
59067;DHT22;44854;50.838;4.438;2023-01-08T14:58:37;11.20;99.90
59067;DHT22;44854;50.838;4.438;2023-01-08T15:01:07;11.20;99.90
59067;DHT22;44854;50.838;4.438;2023-01-08T15:03:39;11.10;99.90
59067;DHT22;44854;50.838;4.438;2023-01-08T15:06:05;11.10;99.90
59067;DHT22;44854;50.838;4.438;2023-01-08T15:11:01;11.10;99.90
59067;DHT22;44854;50.838;4.438;2023-01-08T15:13:34;11.10;99.90
59067;DHT22;44854;50.838;4.438;2023-01-08T15:16:09;11.00;99.90
59067;DHT22;44854;50.838;4.438;2023-01-08T15:18:45;11.00;99.90
59067;DHT22;44854;50.838;4.438;2023-01-08T15:21:16;10.70;99.90
59067;DHT22;44854;50.838;4.438;2023-01-08T15:23:44;10.90;99.90
59067;DHT22;44854;50.838;4.438;2023-01-08T15:26:13;10.90;99.90
59067;DHT22;44854;50.838;4.438;2023-01-08T15:28:43;11.00;99.90
59067;DHT22;44854;50.838;4.438;2023-01-08T15:31:09;10.90;99.90
59067;DHT22;44854;50.838;4.438;2023-01-08T15:33:34;10.90;99.90
59067;DHT22;44854;50.838;4.438;2023-01-08T15:36:00;11.00;99.90
59067;DHT22;44854;50.838;4.438;2023-01-08T15:38:25;11.00;99.90
59067;DHT22;44854;50.838;4.438;2023-01-08T15:40:51;11.10;99.90
59067;DHT22;44854;50.838;4.438;2023-01-08T15:43:18;11.10;99.90
59067;DHT22;44854;50.838;4.438;2023-01-08T15:45:45;11.10;99.90
59067;DHT22;44854;50.838;4.438;2023-01-08T15:48:12;11.20;99.90
59067;DHT22;44854;50.838;4.438;2023-01-08T15:50:38;11.10;99.90
59067;DHT22;44854;50.838;4.438;2023-01-08T15:53:05;11.00;99.90
59067;DHT22;44854;50.838;4.438;2023-01-08T15:55:32;11.00;99.90
59067;DHT22;44854;50.838;4.438;2023-01-08T15:57:58;11.00;99.90
59067;DHT22;44854;50.838;4.438;2023-01-08T16:00:25;11.00;99.90
59067;DHT22;44854;50.838;4.438;2023-01-08T16:02:51;11.00;99.90
59067;DHT22;44854;50.838;4.438;2023-01-08T16:05:17;10.90;99.90
59067;DHT22;44854;50.838;4.438;2023-01-08T16:07:43;11.00;99.90
59067;DHT22;44854;50.838;4.438;2023-01-08T16:10:10;11.00;99.90
59067;DHT22;44854;50.838;4.438;2023-01-08T16:12:36;10.90;99.90
59067;DHT22;44854;50.838;4.438;2023-01-08T16:15:02;10.90;99.90
59067;DHT22;44854;50.838;4.438;2023-01-08T16:17:28;10.90;99.90
59067;DHT22;44854;50.838;4.438;2023-01-08T16:19:54;10.80;99.90
59067;DHT22;44854;50.838;4.438;2023-01-08T16:22:20;10.90;99.90
59067;DHT22;44854;50.838;4.438;2023-01-08T16:24:45;10.80;99.90
59067;DHT22;44854;50.838;4.438;2023-01-08T16:27:11;10.90;99.90
59067;DHT22;44854;50.838;4.438;2023-01-08T16:29:36;10.90;99.90
59067;DHT22;44854;50.838;4.438;2023-01-08T16:32:02;10.90;99.90
59067;DHT22;44854;50.838;4.438;2023-01-08T16:34:28;10.90;99.90
59067;DHT22;44854;50.838;4.438;2023-01-08T16:36:53;11.00;99.90
59067;DHT22;44854;50.838;4.438;2023-01-08T16:39:19;11.00;99.90
59067;DHT22;44854;50.838;4.438;2023-01-08T16:41:46;10.90;99.90
59067;DHT22;44854;50.838;4.438;2023-01-08T16:44:18;10.80;99.90
59067;DHT22;44854;50.838;4.438;2023-01-08T16:46:44;10.90;99.90
59067;DHT22;44854;50.838;4.438;2023-01-08T16:49:10;10.80;99.90
59067;DHT22;44854;50.838;4.438;2023-01-08T16:51:35;10.70;99.90
59067;DHT22;44854;50.838;4.438;2023-01-08T16:54:01;10.70;99.90
59067;DHT22;44854;50.838;4.438;2023-01-08T16:56:26;10.60;99.90
59067;DHT22;44854;50.838;4.438;2023-01-08T16:58:52;10.60;99.90
59067;DHT22;44854;50.838;4.438;2023-01-08T17:01:17;10.60;99.90
59067;DHT22;44854;50.838;4.438;2023-01-08T17:03:43;10.40;99.90
59067;DHT22;44854;50.838;4.438;2023-01-08T17:06:09;10.50;99.90
59067;DHT22;44854;50.838;4.438;2023-01-08T17:08:36;10.40;99.90
59067;DHT22;44854;50.838;4.438;2023-01-08T17:11:08;10.50;99.90
59067;DHT22;44854;50.838;4.438;2023-01-08T17:13:34;10.50;99.90
59067;DHT22;44854;50.838;4.438;2023-01-08T17:16:01;10.40;99.90
59067;DHT22;44854;50.838;4.438;2023-01-08T17:18:27;10.50;99.90
59067;DHT22;44854;50.838;4.438;2023-01-08T17:20:53;10.50;99.90
59067;DHT22;44854;50.838;4.438;2023-01-08T17:23:18;10.50;99.90
59067;DHT22;44854;50.838;4.438;2023-01-08T17:25:44;10.50;99.90
59067;DHT22;44854;50.838;4.438;2023-01-08T17:28:10;10.50;99.90
59067;DHT22;44854;50.838;4.438;2023-01-08T17:30:35;10.40;99.90
59067;DHT22;44854;50.838;4.438;2023-01-08T17:33:01;10.40;99.90
59067;DHT22;44854;50.838;4.438;2023-01-08T17:35:26;10.40;99.90
59067;DHT22;44854;50.838;4.438;2023-01-08T17:37:52;10.50;99.90
59067;DHT22;44854;50.838;4.438;2023-01-08T17:40:17;10.50;99.90
59067;DHT22;44854;50.838;4.438;2023-01-08T17:42:43;10.60;99.90
59067;DHT22;44854;50.838;4.438;2023-01-08T17:45:09;10.60;99.90
59067;DHT22;44854;50.838;4.438;2023-01-08T17:47:34;10.70;99.90
59067;DHT22;44854;50.838;4.438;2023-01-08T17:50:01;10.60;99.90
59067;DHT22;44854;50.838;4.438;2023-01-08T17:52:30;10.60;99.90
59067;DHT22;44854;50.838;4.438;2023-01-08T17:54:55;10.60;99.90
59067;DHT22;44854;50.838;4.438;2023-01-08T17:57:21;10.60;99.90
59067;DHT22;44854;50.838;4.438;2023-01-08T17:59:47;10.60;99.90
59067;DHT22;44854;50.838;4.438;2023-01-08T18:02:13;10.50;99.90
59067;DHT22;44854;50.838;4.438;2023-01-08T18:04:39;10.30;99.90
59067;DHT22;44854;50.838;4.438;2023-01-08T18:07:05;10.40;99.90
59067;DHT22;44854;50.838;4.438;2023-01-08T18:09:31;10.50;99.90
59067;DHT22;44854;50.838;4.438;2023-01-08T18:11:56;10.40;99.90
59067;DHT22;44854;50.838;4.438;2023-01-08T18:14:22;10.30;99.90
59067;DHT22;44854;50.838;4.438;2023-01-08T18:16:47;10.40;99.90
59067;DHT22;44854;50.838;4.438;2023-01-08T18:19:14;10.40;99.90
59067;DHT22;44854;50.838;4.438;2023-01-08T18:21:41;10.30;99.90
59067;DHT22;44854;50.838;4.438;2023-01-08T18:24:07;10.20;99.90
59067;DHT22;44854;50.838;4.438;2023-01-08T18:26:33;10.30;99.90
59067;DHT22;44854;50.838;4.438;2023-01-08T18:28:59;10.30;99.90
59067;DHT22;44854;50.838;4.438;2023-01-08T18:31:25;10.30;99.90
59067;DHT22;44854;50.838;4.438;2023-01-08T18:33:50;10.40;99.90
59067;DHT22;44854;50.838;4.438;2023-01-08T18:36:16;10.40;99.90
59067;DHT22;44854;50.838;4.438;2023-01-08T18:38:42;10.40;99.90
59067;DHT22;44854;50.838;4.438;2023-01-08T18:41:09;10.50;99.90
59067;DHT22;44854;50.838;4.438;2023-01-08T18:43:35;10.60;99.90
59067;DHT22;44854;50.838;4.438;2023-01-08T18:46:01;10.40;99.90
59067;DHT22;44854;50.838;4.438;2023-01-08T18:48:28;10.40;99.90
59067;DHT22;44854;50.838;4.438;2023-01-08T18:50:54;10.50;99.90
59067;DHT22;44854;50.838;4.438;2023-01-08T18:53:19;10.60;99.90
59067;DHT22;44854;50.838;4.438;2023-01-08T18:55:45;10.60;99.90
59067;DHT22;44854;50.838;4.438;2023-01-08T18:58:11;10.50;99.90
59067;DHT22;44854;50.838;4.438;2023-01-08T19:00:36;10.40;99.90
59067;DHT22;44854;50.838;4.438;2023-01-08T19:03:02;10.40;99.90
59067;DHT22;44854;50.838;4.438;2023-01-08T19:05:31;10.40;99.90
59067;DHT22;44854;50.838;4.438;2023-01-08T19:07:57;10.40;99.90
59067;DHT22;44854;50.838;4.438;2023-01-08T19:10:23;10.40;99.90
59067;DHT22;44854;50.838;4.438;2023-01-08T19:12:48;10.30;99.90
59067;DHT22;44854;50.838;4.438;2023-01-08T19:15:15;10.50;99.90
59067;DHT22;44854;50.838;4.438;2023-01-08T19:17:40;10.50;99.90
59067;DHT22;44854;50.838;4.438;2023-01-08T19:20:06;10.40;99.90
59067;DHT22;44854;50.838;4.438;2023-01-08T19:22:32;10.40;99.90
59067;DHT22;44854;50.838;4.438;2023-01-08T19:24:58;10.30;99.90
59067;DHT22;44854;50.838;4.438;2023-01-08T19:27:23;10.20;99.90
59067;DHT22;44854;50.838;4.438;2023-01-08T19:29:49;10.10;99.90
59067;DHT22;44854;50.838;4.438;2023-01-08T19:32:15;10.20;99.90
59067;DHT22;44854;50.838;4.438;2023-01-08T19:34:41;10.10;99.90
59067;DHT22;44854;50.838;4.438;2023-01-08T19:37:07;10.20;99.90
59067;DHT22;44854;50.838;4.438;2023-01-08T19:39:32;10.20;99.90
59067;DHT22;44854;50.838;4.438;2023-01-08T19:41:58;10.20;99.90
59067;DHT22;44854;50.838;4.438;2023-01-08T19:44:42;10.20;99.90
59067;DHT22;44854;50.838;4.438;2023-01-08T19:47:09;10.30;99.90
59067;DHT22;44854;50.838;4.438;2023-01-08T19:49:36;10.20;99.90
59067;DHT22;44854;50.838;4.438;2023-01-08T19:52:01;10.20;99.90
59067;DHT22;44854;50.838;4.438;2023-01-08T19:54:27;10.10;99.90
59067;DHT22;44854;50.838;4.438;2023-01-08T19:56:54;10.20;99.90
59067;DHT22;44854;50.838;4.438;2023-01-08T19:59:19;10.20;99.90
59067;DHT22;44854;50.838;4.438;2023-01-08T20:01:45;10.20;99.90
59067;DHT22;44854;50.838;4.438;2023-01-08T20:04:11;10.30;99.90
59067;DHT22;44854;50.838;4.438;2023-01-08T20:06:37;10.20;99.90
59067;DHT22;44854;50.838;4.438;2023-01-08T20:09:03;10.40;99.90
59067;DHT22;44854;50.838;4.438;2023-01-08T20:11:29;10.40;99.90
59067;DHT22;44854;50.838;4.438;2023-01-08T20:13:55;10.40;99.90
59067;DHT22;44854;50.838;4.438;2023-01-08T20:16:25;10.30;99.90
59067;DHT22;44854;50.838;4.438;2023-01-08T20:18:54;10.30;99.90
59067;DHT22;44854;50.838;4.438;2023-01-08T20:21:20;10.30;99.90
59067;DHT22;44854;50.838;4.438;2023-01-08T20:23:46;10.30;99.90
59067;DHT22;44854;50.838;4.438;2023-01-08T20:26:13;10.40;99.90
59067;DHT22;44854;50.838;4.438;2023-01-08T20:28:39;10.40;99.90
59067;DHT22;44854;50.838;4.438;2023-01-08T20:31:09;10.50;99.90
59067;DHT22;44854;50.838;4.438;2023-01-08T20:33:35;10.50;99.90
59067;DHT22;44854;50.838;4.438;2023-01-08T20:36:05;10.50;99.90
59067;DHT22;44854;50.838;4.438;2023-01-08T20:38:30;10.50;99.90
59067;DHT22;44854;50.838;4.438;2023-01-08T20:40:56;10.60;99.90
59067;DHT22;44854;50.838;4.438;2023-01-08T20:43:22;10.60;99.90
59067;DHT22;44854;50.838;4.438;2023-01-08T20:45:47;10.50;99.90
59067;DHT22;44854;50.838;4.438;2023-01-08T20:48:13;10.50;99.90
59067;DHT22;44854;50.838;4.438;2023-01-08T20:50:39;10.40;99.90
59067;DHT22;44854;50.838;4.438;2023-01-08T20:53:09;10.40;99.90
59067;DHT22;44854;50.838;4.438;2023-01-08T20:55:35;10.50;99.90
59067;DHT22;44854;50.838;4.438;2023-01-08T20:58:00;10.80;99.90
59067;DHT22;44854;50.838;4.438;2023-01-08T21:00:26;10.60;99.90
59067;DHT22;44854;50.838;4.438;2023-01-08T21:02:51;10.40;99.90
59067;DHT22;44854;50.838;4.438;2023-01-08T21:05:17;10.40;99.90
59067;DHT22;44854;50.838;4.438;2023-01-08T21:07:42;10.30;99.90
59067;DHT22;44854;50.838;4.438;2023-01-08T21:10:08;10.20;99.90
59067;DHT22;44854;50.838;4.438;2023-01-08T21:12:34;10.30;99.90
59067;DHT22;44854;50.838;4.438;2023-01-08T21:15:01;10.20;99.90
59067;DHT22;44854;50.838;4.438;2023-01-08T21:17:27;9.90;99.90
59067;DHT22;44854;50.838;4.438;2023-01-08T21:19:52;9.40;99.90
59067;DHT22;44854;50.838;4.438;2023-01-08T21:22:18;9.10;99.90
59067;DHT22;44854;50.838;4.438;2023-01-08T21:24:43;8.80;99.90
59067;DHT22;44854;50.838;4.438;2023-01-08T21:27:09;8.80;99.90
59067;DHT22;44854;50.838;4.438;2023-01-08T21:29:35;8.70;99.90
59067;DHT22;44854;50.838;4.438;2023-01-08T21:32:00;8.60;99.90
59067;DHT22;44854;50.838;4.438;2023-01-08T21:34:26;8.70;99.90
59067;DHT22;44854;50.838;4.438;2023-01-08T21:36:51;8.80;99.90
59067;DHT22;44854;50.838;4.438;2023-01-08T21:39:17;8.90;99.90
59067;DHT22;44854;50.838;4.438;2023-01-08T21:41:43;8.70;99.90
59067;DHT22;44854;50.838;4.438;2023-01-08T21:44:27;8.80;99.90
59067;DHT22;44854;50.838;4.438;2023-01-08T21:47:15;8.80;99.90
59067;DHT22;44854;50.838;4.438;2023-01-08T21:49:41;8.80;99.90
59067;DHT22;44854;50.838;4.438;2023-01-08T21:52:06;8.90;99.90
59067;DHT22;44854;50.838;4.438;2023-01-08T21:54:51;8.90;99.90
59067;DHT22;44854;50.838;4.438;2023-01-08T21:57:16;8.90;99.90
59067;DHT22;44854;50.838;4.438;2023-01-08T21:59:42;9.00;99.90
59067;DHT22;44854;50.838;4.438;2023-01-08T22:02:12;9.00;99.90
59067;DHT22;44854;50.838;4.438;2023-01-08T22:04:38;9.00;99.90
59067;DHT22;44854;50.838;4.438;2023-01-08T22:07:03;9.00;99.90
59067;DHT22;44854;50.838;4.438;2023-01-08T22:09:29;9.00;99.90
59067;DHT22;44854;50.838;4.438;2023-01-08T22:11:55;8.90;99.90
59067;DHT22;44854;50.838;4.438;2023-01-08T22:14:20;9.00;99.90
59067;DHT22;44854;50.838;4.438;2023-01-08T22:16:46;9.00;99.90
59067;DHT22;44854;50.838;4.438;2023-01-08T22:19:11;8.90;99.90
59067;DHT22;44854;50.838;4.438;2023-01-08T22:21:37;8.80;99.90
59067;DHT22;44854;50.838;4.438;2023-01-08T22:24:03;8.80;99.90
59067;DHT22;44854;50.838;4.438;2023-01-08T22:26:29;8.80;99.90
59067;DHT22;44854;50.838;4.438;2023-01-08T22:28:55;8.80;99.90
59067;DHT22;44854;50.838;4.438;2023-01-08T22:31:20;8.70;99.90
59067;DHT22;44854;50.838;4.438;2023-01-08T22:33:46;8.60;99.90
59067;DHT22;44854;50.838;4.438;2023-01-08T22:36:12;8.60;99.90
59067;DHT22;44854;50.838;4.438;2023-01-08T22:38:38;8.70;99.90
59067;DHT22;44854;50.838;4.438;2023-01-08T22:41:04;8.60;99.90
59067;DHT22;44854;50.838;4.438;2023-01-08T22:43:34;8.60;99.90
59067;DHT22;44854;50.838;4.438;2023-01-08T22:45:59;8.50;99.90
59067;DHT22;44854;50.838;4.438;2023-01-08T22:48:25;8.50;99.90
59067;DHT22;44854;50.838;4.438;2023-01-08T22:50:51;8.50;99.90
59067;DHT22;44854;50.838;4.438;2023-01-08T22:53:17;8.40;99.90
59067;DHT22;44854;50.838;4.438;2023-01-08T22:55:43;8.40;99.90
59067;DHT22;44854;50.838;4.438;2023-01-08T22:58:11;8.40;99.90
59067;DHT22;44854;50.838;4.438;2023-01-08T23:00:36;8.40;99.90
59067;DHT22;44854;50.838;4.438;2023-01-08T23:03:02;8.40;99.90
59067;DHT22;44854;50.838;4.438;2023-01-08T23:05:28;8.40;99.90
59067;DHT22;44854;50.838;4.438;2023-01-08T23:07:54;8.30;99.90
59067;DHT22;44854;50.838;4.438;2023-01-08T23:10:19;8.20;99.90
59067;DHT22;44854;50.838;4.438;2023-01-08T23:12:45;8.40;99.90
59067;DHT22;44854;50.838;4.438;2023-01-08T23:15:10;8.40;99.90
59067;DHT22;44854;50.838;4.438;2023-01-08T23:17:36;8.40;99.90
